< < Back
Terminal Aerodrome Forecast


Current Version              Previous Versions:   1  2  3  4  5  6  7  8  9  

Terminal Aerodrome Forecast

770
FTUS42 KTAE 231900 AAA
TAFTLH
TAF AMD
KTLH 231902Z 2319/2418 VRB05KT P6SM VCTS BKN050CB
      TEMPO 2319/2321 VRB15G25KT 2SM TSRA BKN025CB
     FM240000 00000KT P6SM SCT250
     FM241500 24006KT P6SM SCT250=



Latest METAR

803
SAUS80 KWBC 241300 RRB
MTRTLH
METAR KTLH 241253Z 00000KT 10SM CLR 26/23 A3004 RMK AO2 SLP172
T02560228


USA.gov is the U.S. government's official web portal to all federal, state and local government web resources and services.